sensor_id;sensor_type;location;lat;lon;timestamp;temperature;humidity
14893;DHT22;7538;53.626;9.906;2023-01-19T00:02:02;2.30;99.90
14893;DHT22;7538;53.626;9.906;2023-01-19T00:04:29;2.40;99.90
14893;DHT22;7538;53.626;9.906;2023-01-19T00:06:57;2.30;99.90
14893;DHT22;7538;53.626;9.906;2023-01-19T00:09:26;2.40;99.90
14893;DHT22;7538;53.626;9.906;2023-01-19T00:11:57;2.40;99.90
14893;DHT22;7538;53.626;9.906;2023-01-19T00:14:24;2.50;99.90
14893;DHT22;7538;53.626;9.906;2023-01-19T00:16:51;2.50;99.90
14893;DHT22;7538;53.626;9.906;2023-01-19T00:19:18;2.50;99.90
14893;DHT22;7538;53.626;9.906;2023-01-19T00:21:45;2.50;99.90
14893;DHT22;7538;53.626;9.906;2023-01-19T00:24:13;2.60;99.90
14893;DHT22;7538;53.626;9.906;2023-01-19T00:26:40;2.60;99.90
14893;DHT22;7538;53.626;9.906;2023-01-19T00:29:07;2.60;99.90
14893;DHT22;7538;53.626;9.906;2023-01-19T00:31:35;2.60;99.90
14893;DHT22;7538;53.626;9.906;2023-01-19T00:34:02;2.60;99.90
14893;DHT22;7538;53.626;9.906;2023-01-19T00:36:29;2.60;99.90
14893;DHT22;7538;53.626;9.906;2023-01-19T00:38:57;2.70;99.90
14893;DHT22;7538;53.626;9.906;2023-01-19T00:41:25;2.60;99.90
14893;DHT22;7538;53.626;9.906;2023-01-19T00:44:06;2.70;99.90
14893;DHT22;7538;53.626;9.906;2023-01-19T00:46:32;2.70;99.90
14893;DHT22;7538;53.626;9.906;2023-01-19T00:48:59;2.80;99.90
14893;DHT22;7538;53.626;9.906;2023-01-19T00:51:26;2.80;99.90
14893;DHT22;7538;53.626;9.906;2023-01-19T00:53:53;2.90;99.90
14893;DHT22;7538;53.626;9.906;2023-01-19T00:56:19;2.80;99.90
14893;DHT22;7538;53.626;9.906;2023-01-19T00:58:48;2.80;99.90
14893;DHT22;7538;53.626;9.906;2023-01-19T01:01:15;2.80;99.90
14893;DHT22;7538;53.626;9.906;2023-01-19T01:03:42;2.80;99.90
14893;DHT22;7538;53.626;9.906;2023-01-19T01:06:09;2.80;99.90
14893;DHT22;7538;53.626;9.906;2023-01-19T01:08:36;2.90;99.90
14893;DHT22;7538;53.626;9.906;2023-01-19T01:11:03;3.00;99.90
14893;DHT22;7538;53.626;9.906;2023-01-19T01:13:30;3.00;99.90
14893;DHT22;7538;53.626;9.906;2023-01-19T01:15:58;3.00;99.90
14893;DHT22;7538;53.626;9.906;2023-01-19T01:18:25;3.00;99.90
14893;DHT22;7538;53.626;9.906;2023-01-19T01:20:52;6.00;99.90
14893;DHT22;7538;53.626;9.906;2023-01-19T01:23:18;3.00;99.90
14893;DHT22;7538;53.626;9.906;2023-01-19T01:25:47;3.00;99.90
14893;DHT22;7538;53.626;9.906;2023-01-19T01:28:14;3.00;99.90
14893;DHT22;7538;53.626;9.906;2023-01-19T01:30:40;3.00;99.90
14893;DHT22;7538;53.626;9.906;2023-01-19T01:33:09;3.10;99.90
14893;DHT22;7538;53.626;9.906;2023-01-19T01:35:38;3.10;99.90
14893;DHT22;7538;53.626;9.906;2023-01-19T01:38:05;3.20;99.90
14893;DHT22;7538;53.626;9.906;2023-01-19T01:40:32;2.00;99.90
14893;DHT22;7538;53.626;9.906;2023-01-19T01:42:58;3.20;99.90
14893;DHT22;7538;53.626;9.906;2023-01-19T01:45:31;3.20;99.90
14893;DHT22;7538;53.626;9.906;2023-01-19T01:48:02;3.10;99.90
14893;DHT22;7538;53.626;9.906;2023-01-19T01:50:35;3.10;99.90
14893;DHT22;7538;53.626;9.906;2023-01-19T01:53:06;3.10;99.90
14893;DHT22;7538;53.626;9.906;2023-01-19T01:55:38;3.10;99.90
14893;DHT22;7538;53.626;9.906;2023-01-19T01:58:07;3.10;99.90
14893;DHT22;7538;53.626;9.906;2023-01-19T02:00:35;3.10;99.90
14893;DHT22;7538;53.626;9.906;2023-01-19T02:03:17;3.10;99.90
14893;DHT22;7538;53.626;9.906;2023-01-19T02:05:45;3.20;99.90
14893;DHT22;7538;53.626;9.906;2023-01-19T02:08:15;3.20;99.90
14893;DHT22;7538;53.626;9.906;2023-01-19T02:11:02;3.20;99.90
14893;DHT22;7538;53.626;9.906;2023-01-19T02:13:47;3.20;99.90
14893;DHT22;7538;53.626;9.906;2023-01-19T02:16:15;3.20;99.90
14893;DHT22;7538;53.626;9.906;2023-01-19T02:18:42;3.10;99.90
14893;DHT22;7538;53.626;9.906;2023-01-19T02:21:13;3.20;99.90
14893;DHT22;7538;53.626;9.906;2023-01-19T02:23:46;3.20;99.90
14893;DHT22;7538;53.626;9.906;2023-01-19T02:26:17;3.20;99.90
14893;DHT22;7538;53.626;9.906;2023-01-19T02:28:47;3.20;99.90
14893;DHT22;7538;53.626;9.906;2023-01-19T02:31:15;3.30;99.90
14893;DHT22;7538;53.626;9.906;2023-01-19T02:33:42;3.30;99.90
14893;DHT22;7538;53.626;9.906;2023-01-19T02:36:10;3.40;99.90
14893;DHT22;7538;53.626;9.906;2023-01-19T02:38:39;3.40;99.90
14893;DHT22;7538;53.626;9.906;2023-01-19T02:41:11;3.30;99.90
14893;DHT22;7538;53.626;9.906;2023-01-19T02:43:39;3.30;99.90
14893;DHT22;7538;53.626;9.906;2023-01-19T02:46:07;3.30;99.90
14893;DHT22;7538;53.626;9.906;2023-01-19T02:48:34;3.30;99.90
14893;DHT22;7538;53.626;9.906;2023-01-19T02:51:01;3.30;99.90
14893;DHT22;7538;53.626;9.906;2023-01-19T02:53:48;3.40;99.90
14893;DHT22;7538;53.626;9.906;2023-01-19T02:56:37;3.40;99.90
14893;DHT22;7538;53.626;9.906;2023-01-19T02:59:11;3.40;99.90
14893;DHT22;7538;53.626;9.906;2023-01-19T03:01:50;3.50;99.90
14893;DHT22;7538;53.626;9.906;2023-01-19T03:04:27;3.50;99.90
14893;DHT22;7538;53.626;9.906;2023-01-19T03:07:02;3.50;99.90
14893;DHT22;7538;53.626;9.906;2023-01-19T03:09:40;3.50;99.90
14893;DHT22;7538;53.626;9.906;2023-01-19T03:12:15;3.50;99.90
14893;DHT22;7538;53.626;9.906;2023-01-19T03:14:45;3.60;99.90
14893;DHT22;7538;53.626;9.906;2023-01-19T03:17:16;3.60;99.90
14893;DHT22;7538;53.626;9.906;2023-01-19T03:19:47;3.70;99.90
14893;DHT22;7538;53.626;9.906;2023-01-19T03:22:20;3.70;99.90
14893;DHT22;7538;53.626;9.906;2023-01-19T03:24:49;3.70;99.90
14893;DHT22;7538;53.626;9.906;2023-01-19T03:27:25;3.70;99.90
14893;DHT22;7538;53.626;9.906;2023-01-19T03:29:54;3.70;99.90
14893;DHT22;7538;53.626;9.906;2023-01-19T03:32:27;3.60;99.90
14893;DHT22;7538;53.626;9.906;2023-01-19T03:34:59;3.60;99.90
14893;DHT22;7538;53.626;9.906;2023-01-19T03:37:28;3.50;99.90
14893;DHT22;7538;53.626;9.906;2023-01-19T03:39:56;3.50;99.90
14893;DHT22;7538;53.626;9.906;2023-01-19T03:42:26;3.50;99.90
14893;DHT22;7538;53.626;9.906;2023-01-19T03:44:54;3.40;99.90
14893;DHT22;7538;53.626;9.906;2023-01-19T03:47:22;3.40;99.90
14893;DHT22;7538;53.626;9.906;2023-01-19T03:49:50;3.50;99.90
14893;DHT22;7538;53.626;9.906;2023-01-19T03:52:26;3.60;99.90
14893;DHT22;7538;53.626;9.906;2023-01-19T03:54:53;3.60;99.90
14893;DHT22;7538;53.626;9.906;2023-01-19T03:57:20;3.70;99.90
14893;DHT22;7538;53.626;9.906;2023-01-19T03:59:48;3.80;99.90
14893;DHT22;7538;53.626;9.906;2023-01-19T04:02:15;3.80;99.90
14893;DHT22;7538;53.626;9.906;2023-01-19T04:04:42;3.80;99.90
14893;DHT22;7538;53.626;9.906;2023-01-19T04:07:09;3.80;99.90
14893;DHT22;7538;53.626;9.906;2023-01-19T04:09:36;3.90;99.90
14893;DHT22;7538;53.626;9.906;2023-01-19T04:12:03;4.00;99.90
14893;DHT22;7538;53.626;9.906;2023-01-19T04:14:30;4.00;99.90
14893;DHT22;7538;53.626;9.906;2023-01-19T04:16:58;4.00;99.90
14893;DHT22;7538;53.626;9.906;2023-01-19T04:19:25;4.00;99.90
14893;DHT22;7538;53.626;9.906;2023-01-19T04:21:51;4.00;99.90
14893;DHT22;7538;53.626;9.906;2023-01-19T04:24:19;4.00;99.90
14893;DHT22;7538;53.626;9.906;2023-01-19T04:26:46;4.00;99.90
14893;DHT22;7538;53.626;9.906;2023-01-19T04:29:13;4.00;99.90
14893;DHT22;7538;53.626;9.906;2023-01-19T04:31:40;4.00;99.90
14893;DHT22;7538;53.626;9.906;2023-01-19T04:34:08;4.00;99.90
14893;DHT22;7538;53.626;9.906;2023-01-19T04:36:35;4.00;99.90
14893;DHT22;7538;53.626;9.906;2023-01-19T04:39:01;3.90;99.90
14893;DHT22;7538;53.626;9.906;2023-01-19T04:41:29;3.80;99.90
14893;DHT22;7538;53.626;9.906;2023-01-19T04:43:56;3.90;99.90
14893;DHT22;7538;53.626;9.906;2023-01-19T04:46:23;3.90;99.90
14893;DHT22;7538;53.626;9.906;2023-01-19T04:48:49;3.90;99.90
14893;DHT22;7538;53.626;9.906;2023-01-19T04:51:18;4.00;99.90
14893;DHT22;7538;53.626;9.906;2023-01-19T04:53:45;4.00;99.90
14893;DHT22;7538;53.626;9.906;2023-01-19T04:56:11;4.00;99.90
14893;DHT22;7538;53.626;9.906;2023-01-19T04:58:38;4.00;99.90
14893;DHT22;7538;53.626;9.906;2023-01-19T05:01:07;4.10;99.90
14893;DHT22;7538;53.626;9.906;2023-01-19T05:03:34;4.10;99.90
14893;DHT22;7538;53.626;9.906;2023-01-19T05:06:00;4.00;99.90
14893;DHT22;7538;53.626;9.906;2023-01-19T05:08:29;4.00;99.90
14893;DHT22;7538;53.626;9.906;2023-01-19T05:10:55;3.90;99.90
14893;DHT22;7538;53.626;9.906;2023-01-19T05:13:22;3.80;99.90
14893;DHT22;7538;53.626;9.906;2023-01-19T05:15:49;3.80;99.90
14893;DHT22;7538;53.626;9.906;2023-01-19T05:18:16;3.90;99.90
14893;DHT22;7538;53.626;9.906;2023-01-19T05:20:43;3.90;99.90
14893;DHT22;7538;53.626;9.906;2023-01-19T05:23:10;4.00;99.90
14893;DHT22;7538;53.626;9.906;2023-01-19T05:25:38;4.00;99.90
14893;DHT22;7538;53.626;9.906;2023-01-19T05:28:05;4.00;99.90
14893;DHT22;7538;53.626;9.906;2023-01-19T05:30:32;4.00;99.90
14893;DHT22;7538;53.626;9.906;2023-01-19T05:32:59;4.00;99.90
14893;DHT22;7538;53.626;9.906;2023-01-19T05:35:26;4.10;99.90
14893;DHT22;7538;53.626;9.906;2023-01-19T05:37:52;4.10;99.90
14893;DHT22;7538;53.626;9.906;2023-01-19T05:40:19;4.20;99.90
14893;DHT22;7538;53.626;9.906;2023-01-19T05:42:47;4.10;99.90
14893;DHT22;7538;53.626;9.906;2023-01-19T05:45:14;4.10;99.90
14893;DHT22;7538;53.626;9.906;2023-01-19T05:47:41;4.00;99.90
14893;DHT22;7538;53.626;9.906;2023-01-19T05:50:09;3.90;99.90
14893;DHT22;7538;53.626;9.906;2023-01-19T05:52:35;3.90;99.90
14893;DHT22;7538;53.626;9.906;2023-01-19T05:55:02;3.90;99.90
14893;DHT22;7538;53.626;9.906;2023-01-19T05:57:29;6.60;99.90
14893;DHT22;7538;53.626;9.906;2023-01-19T05:59:57;3.90;99.90
14893;DHT22;7538;53.626;9.906;2023-01-19T06:02:24;2.50;99.90
14893;DHT22;7538;53.626;9.906;2023-01-19T06:04:53;0.80;99.90
14893;DHT22;7538;53.626;9.906;2023-01-19T06:07:20;3.90;99.90
14893;DHT22;7538;53.626;9.906;2023-01-19T06:09:47;3.90;99.90
14893;DHT22;7538;53.626;9.906;2023-01-19T06:12:14;3.90;99.90
14893;DHT22;7538;53.626;9.906;2023-01-19T06:14:40;3.90;99.90
14893;DHT22;7538;53.626;9.906;2023-01-19T06:17:08;3.90;99.90
14893;DHT22;7538;53.626;9.906;2023-01-19T06:19:35;3.80;99.90
14893;DHT22;7538;53.626;9.906;2023-01-19T06:22:02;3.70;99.90
14893;DHT22;7538;53.626;9.906;2023-01-19T06:24:29;3.60;99.90
14893;DHT22;7538;53.626;9.906;2023-01-19T06:26:55;3.50;99.90
14893;DHT22;7538;53.626;9.906;2023-01-19T06:29:22;3.50;99.90
14893;DHT22;7538;53.626;9.906;2023-01-19T06:31:49;3.60;99.90
14893;DHT22;7538;53.626;9.906;2023-01-19T06:34:18;3.60;99.90
14893;DHT22;7538;53.626;9.906;2023-01-19T06:36:45;3.70;99.90
14893;DHT22;7538;53.626;9.906;2023-01-19T06:39:12;3.70;99.90
14893;DHT22;7538;53.626;9.906;2023-01-19T06:41:39;3.70;99.90
14893;DHT22;7538;53.626;9.906;2023-01-19T06:44:06;3.70;99.90
14893;DHT22;7538;53.626;9.906;2023-01-19T06:46:33;3.70;99.90
14893;DHT22;7538;53.626;9.906;2023-01-19T06:49:00;3.70;99.90
14893;DHT22;7538;53.626;9.906;2023-01-19T06:51:28;3.70;99.90
14893;DHT22;7538;53.626;9.906;2023-01-19T06:53:55;3.60;99.90
14893;DHT22;7538;53.626;9.906;2023-01-19T06:56:22;3.60;99.90
14893;DHT22;7538;53.626;9.906;2023-01-19T06:58:49;3.60;99.90
14893;DHT22;7538;53.626;9.906;2023-01-19T07:01:16;3.50;99.90
14893;DHT22;7538;53.626;9.906;2023-01-19T07:03:43;3.50;99.90
14893;DHT22;7538;53.626;9.906;2023-01-19T07:06:09;3.40;99.90
14893;DHT22;7538;53.626;9.906;2023-01-19T07:08:38;3.50;99.90
14893;DHT22;7538;53.626;9.906;2023-01-19T07:11:06;3.40;99.90
14893;DHT22;7538;53.626;9.906;2023-01-19T07:13:35;3.40;99.90
14893;DHT22;7538;53.626;9.906;2023-01-19T07:16:03;3.40;99.90
14893;DHT22;7538;53.626;9.906;2023-01-19T07:18:31;3.40;99.90
14893;DHT22;7538;53.626;9.906;2023-01-19T07:20:58;3.50;99.90
14893;DHT22;7538;53.626;9.906;2023-01-19T07:23:24;3.50;99.90
14893;DHT22;7538;53.626;9.906;2023-01-19T07:25:56;3.50;99.90
14893;DHT22;7538;53.626;9.906;2023-01-19T07:28:23;3.50;99.90
14893;DHT22;7538;53.626;9.906;2023-01-19T07:30:50;3.50;99.90
14893;DHT22;7538;53.626;9.906;2023-01-19T07:33:17;3.50;99.90
14893;DHT22;7538;53.626;9.906;2023-01-19T07:35:45;3.50;99.90
14893;DHT22;7538;53.626;9.906;2023-01-19T07:38:12;3.50;99.90
14893;DHT22;7538;53.626;9.906;2023-01-19T07:40:39;3.50;99.90
14893;DHT22;7538;53.626;9.906;2023-01-19T07:43:07;3.50;99.90
14893;DHT22;7538;53.626;9.906;2023-01-19T07:45:34;3.50;99.90
14893;DHT22;7538;53.626;9.906;2023-01-19T07:48:01;3.50;99.90
14893;DHT22;7538;53.626;9.906;2023-01-19T07:50:28;3.50;99.90
14893;DHT22;7538;53.626;9.906;2023-01-19T07:52:55;3.50;99.90
14893;DHT22;7538;53.626;9.906;2023-01-19T07:55:23;3.50;99.90
14893;DHT22;7538;53.626;9.906;2023-01-19T07:57:50;3.50;99.90
14893;DHT22;7538;53.626;9.906;2023-01-19T08:00:20;3.60;99.90
14893;DHT22;7538;53.626;9.906;2023-01-19T08:02:49;3.60;99.90
14893;DHT22;7538;53.626;9.906;2023-01-19T08:05:17;3.50;99.90
14893;DHT22;7538;53.626;9.906;2023-01-19T08:07:44;3.60;99.90
14893;DHT22;7538;53.626;9.906;2023-01-19T08:10:12;3.70;99.90
14893;DHT22;7538;53.626;9.906;2023-01-19T08:12:39;3.90;99.90
14893;DHT22;7538;53.626;9.906;2023-01-19T08:15:07;4.00;99.90
14893;DHT22;7538;53.626;9.906;2023-01-19T08:17:36;4.00;99.90
14893;DHT22;7538;53.626;9.906;2023-01-19T08:20:04;4.10;99.90
14893;DHT22;7538;53.626;9.906;2023-01-19T08:22:31;4.20;99.90
14893;DHT22;7538;53.626;9.906;2023-01-19T08:24:58;4.30;99.90
14893;DHT22;7538;53.626;9.906;2023-01-19T08:27:25;4.20;99.90
14893;DHT22;7538;53.626;9.906;2023-01-19T08:29:51;4.20;99.90
14893;DHT22;7538;53.626;9.906;2023-01-19T08:32:19;4.10;99.90
14893;DHT22;7538;53.626;9.906;2023-01-19T08:34:47;4.00;99.90
14893;DHT22;7538;53.626;9.906;2023-01-19T08:37:14;4.00;99.90
14893;DHT22;7538;53.626;9.906;2023-01-19T08:39:40;4.00;99.90
14893;DHT22;7538;53.626;9.906;2023-01-19T08:42:07;4.00;99.90
14893;DHT22;7538;53.626;9.906;2023-01-19T08:44:34;4.10;99.90
14893;DHT22;7538;53.626;9.906;2023-01-19T08:47:01;4.20;99.90
14893;DHT22;7538;53.626;9.906;2023-01-19T08:49:28;4.20;99.90
14893;DHT22;7538;53.626;9.906;2023-01-19T08:51:56;4.30;99.90
14893;DHT22;7538;53.626;9.906;2023-01-19T08:54:23;4.20;99.90
14893;DHT22;7538;53.626;9.906;2023-01-19T08:56:49;4.20;99.90
14893;DHT22;7538;53.626;9.906;2023-01-19T08:59:16;4.20;99.90
14893;DHT22;7538;53.626;9.906;2023-01-19T09:01:43;4.20;99.90
14893;DHT22;7538;53.626;9.906;2023-01-19T09:04:10;4.20;99.90
14893;DHT22;7538;53.626;9.906;2023-01-19T09:06:36;4.20;99.90
14893;DHT22;7538;53.626;9.906;2023-01-19T09:09:05;4.20;99.90
14893;DHT22;7538;53.626;9.906;2023-01-19T09:11:31;4.10;99.90
14893;DHT22;7538;53.626;9.906;2023-01-19T09:13:59;1.00;99.90
14893;DHT22;7538;53.626;9.906;2023-01-19T09:16:26;4.10;99.90
14893;DHT22;7538;53.626;9.906;2023-01-19T09:18:53;4.10;99.90
14893;DHT22;7538;53.626;9.906;2023-01-19T09:21:20;4.10;99.90
14893;DHT22;7538;53.626;9.906;2023-01-19T09:23:47;4.10;99.90
14893;DHT22;7538;53.626;9.906;2023-01-19T09:26:15;4.10;99.90
14893;DHT22;7538;53.626;9.906;2023-01-19T09:28:42;4.10;99.90
14893;DHT22;7538;53.626;9.906;2023-01-19T09:31:09;4.10;99.90
14893;DHT22;7538;53.626;9.906;2023-01-19T09:33:35;4.10;99.90
14893;DHT22;7538;53.626;9.906;2023-01-19T09:36:02;4.20;99.90
14893;DHT22;7538;53.626;9.906;2023-01-19T09:38:29;4.20;99.90
14893;DHT22;7538;53.626;9.906;2023-01-19T09:40:58;4.20;99.90
14893;DHT22;7538;53.626;9.906;2023-01-19T09:43:34;4.30;99.90
14893;DHT22;7538;53.626;9.906;2023-01-19T09:46:04;4.30;99.90
14893;DHT22;7538;53.626;9.906;2023-01-19T09:48:41;4.30;99.90
14893;DHT22;7538;53.626;9.906;2023-01-19T09:51:13;4.40;99.90
14893;DHT22;7538;53.626;9.906;2023-01-19T09:54:01;7.20;99.90
14893;DHT22;7538;53.626;9.906;2023-01-19T09:56:30;4.60;99.90
14893;DHT22;7538;53.626;9.906;2023-01-19T09:58:59;4.70;99.90
14893;DHT22;7538;53.626;9.906;2023-01-19T10:01:36;4.70;99.90
14893;DHT22;7538;53.626;9.906;2023-01-19T10:04:28;4.80;99.90
14893;DHT22;7538;53.626;9.906;2023-01-19T10:07:05;4.80;99.90
14893;DHT22;7538;53.626;9.906;2023-01-19T10:09:39;4.70;99.90
14893;DHT22;7538;53.626;9.906;2023-01-19T10:12:11;4.80;99.90
14893;DHT22;7538;53.626;9.906;2023-01-19T10:14:46;4.70;99.90
14893;DHT22;7538;53.626;9.906;2023-01-19T10:17:21;4.70;99.90
14893;DHT22;7538;53.626;9.906;2023-01-19T10:19:52;4.70;99.90
14893;DHT22;7538;53.626;9.906;2023-01-19T10:22:23;4.80;99.90
14893;DHT22;7538;53.626;9.906;2023-01-19T10:24:52;4.90;99.90
14893;DHT22;7538;53.626;9.906;2023-01-19T10:27:23;5.00;99.90
14893;DHT22;7538;53.626;9.906;2023-01-19T10:29:53;5.10;99.90
14893;DHT22;7538;53.626;9.906;2023-01-19T10:32:22;5.20;99.90
14893;DHT22;7538;53.626;9.906;2023-01-19T10:34:50;5.40;99.90
14893;DHT22;7538;53.626;9.906;2023-01-19T10:37:26;5.40;99.90
14893;DHT22;7538;53.626;9.906;2023-01-19T10:39:55;5.40;99.90
14893;DHT22;7538;53.626;9.906;2023-01-19T10:42:25;5.40;99.90
14893;DHT22;7538;53.626;9.906;2023-01-19T10:44:54;5.30;99.90
14893;DHT22;7538;53.626;9.906;2023-01-19T10:47:29;5.30;99.90
14893;DHT22;7538;53.626;9.906;2023-01-19T10:49:57;5.30;99.90
14893;DHT22;7538;53.626;9.906;2023-01-19T10:52:28;5.30;99.90
14893;DHT22;7538;53.626;9.906;2023-01-19T10:54:56;5.40;99.90
14893;DHT22;7538;53.626;9.906;2023-01-19T10:57:27;5.40;99.90
14893;DHT22;7538;53.626;9.906;2023-01-19T10:59:56;5.30;99.90
14893;DHT22;7538;53.626;9.906;2023-01-19T11:02:24;5.30;99.90
14893;DHT22;7538;53.626;9.906;2023-01-19T11:04:53;5.20;99.90
14893;DHT22;7538;53.626;9.906;2023-01-19T11:07:22;5.20;99.90
14893;DHT22;7538;53.626;9.906;2023-01-19T11:09:49;5.20;99.90
14893;DHT22;7538;53.626;9.906;2023-01-19T11:12:39;5.10;99.90
14893;DHT22;7538;53.626;9.906;2023-01-19T11:15:13;5.10;99.90
14893;DHT22;7538;53.626;9.906;2023-01-19T11:17:43;5.10;99.90
14893;DHT22;7538;53.626;9.906;2023-01-19T11:20:19;5.10;99.90
14893;DHT22;7538;53.626;9.906;2023-01-19T11:22:46;5.20;99.90
14893;DHT22;7538;53.626;9.906;2023-01-19T11:25:21;5.20;99.90
14893;DHT22;7538;53.626;9.906;2023-01-19T11:27:51;5.20;99.90
14893;DHT22;7538;53.626;9.906;2023-01-19T11:30:22;5.20;99.90
14893;DHT22;7538;53.626;9.906;2023-01-19T11:32:50;5.20;99.90
14893;DHT22;7538;53.626;9.906;2023-01-19T11:35:37;2.50;99.90
14893;DHT22;7538;53.626;9.906;2023-01-19T11:38:05;5.10;99.90
14893;DHT22;7538;53.626;9.906;2023-01-19T11:40:33;5.00;99.90
14893;DHT22;7538;53.626;9.906;2023-01-19T11:43:00;5.00;99.90
14893;DHT22;7538;53.626;9.906;2023-01-19T11:45:28;5.00;99.90
14893;DHT22;7538;53.626;9.906;2023-01-19T11:47:57;5.00;99.90
14893;DHT22;7538;53.626;9.906;2023-01-19T11:50:32;5.10;99.90
14893;DHT22;7538;53.626;9.906;2023-01-19T11:53:03;5.10;99.90
14893;DHT22;7538;53.626;9.906;2023-01-19T11:55:36;5.00;99.90
14893;DHT22;7538;53.626;9.906;2023-01-19T11:58:04;5.00;99.90
14893;DHT22;7538;53.626;9.906;2023-01-19T12:00:35;5.00;99.90
14893;DHT22;7538;53.626;9.906;2023-01-19T12:03:09;5.00;99.90
14893;DHT22;7538;53.626;9.906;2023-01-19T12:05:40;5.00;99.90
14893;DHT22;7538;53.626;9.906;2023-01-19T12:08:13;5.10;99.90
14893;DHT22;7538;53.626;9.906;2023-01-19T12:10:44;5.20;99.90
14893;DHT22;7538;53.626;9.906;2023-01-19T12:13:23;7.90;99.90
14893;DHT22;7538;53.626;9.906;2023-01-19T12:15:54;5.30;99.90
14893;DHT22;7538;53.626;9.906;2023-01-19T12:18:25;5.30;99.90
14893;DHT22;7538;53.626;9.906;2023-01-19T12:20:54;5.20;99.90
14893;DHT22;7538;53.626;9.906;2023-01-19T12:23:42;5.20;99.90
14893;DHT22;7538;53.626;9.906;2023-01-19T12:26:27;5.10;99.90
14893;DHT22;7538;53.626;9.906;2023-01-19T12:28:59;5.20;99.90
14893;DHT22;7538;53.626;9.906;2023-01-19T12:31:30;5.20;99.90
14893;DHT22;7538;53.626;9.906;2023-01-19T12:34:27;5.10;99.90
14893;DHT22;7538;53.626;9.906;2023-01-19T12:37:00;5.10;99.90
14893;DHT22;7538;53.626;9.906;2023-01-19T12:39:28;5.10;99.90
14893;DHT22;7538;53.626;9.906;2023-01-19T12:42:13;5.20;99.90
14893;DHT22;7538;53.626;9.906;2023-01-19T12:44:41;5.20;99.90
14893;DHT22;7538;53.626;9.906;2023-01-19T12:47:20;5.20;99.90
14893;DHT22;7538;53.626;9.906;2023-01-19T12:49:51;5.20;99.90
14893;DHT22;7538;53.626;9.906;2023-01-19T12:52:30;5.20;99.90
14893;DHT22;7538;53.626;9.906;2023-01-19T12:55:02;5.20;99.90
14893;DHT22;7538;53.626;9.906;2023-01-19T12:57:32;5.30;99.90
14893;DHT22;7538;53.626;9.906;2023-01-19T13:00:04;5.30;99.90
14893;DHT22;7538;53.626;9.906;2023-01-19T13:02:51;5.30;99.90
14893;DHT22;7538;53.626;9.906;2023-01-19T13:08:17;5.30;99.90
14893;DHT22;7538;53.626;9.906;2023-01-19T13:13:35;5.40;99.90
14893;DHT22;7538;53.626;9.906;2023-01-19T13:19:14;5.50;99.90
14893;DHT22;7538;53.626;9.906;2023-01-19T13:21:42;5.50;99.90
14893;DHT22;7538;53.626;9.906;2023-01-19T13:24:11;5.40;99.90
14893;DHT22;7538;53.626;9.906;2023-01-19T13:26:42;5.40;99.90
14893;DHT22;7538;53.626;9.906;2023-01-19T13:29:24;5.50;99.90
14893;DHT22;7538;53.626;9.906;2023-01-19T13:31:52;5.60;99.90
14893;DHT22;7538;53.626;9.906;2023-01-19T13:34:29;5.60;99.90
14893;DHT22;7538;53.626;9.906;2023-01-19T13:36:57;5.70;99.90
14893;DHT22;7538;53.626;9.906;2023-01-19T13:39:27;5.70;99.90
14893;DHT22;7538;53.626;9.906;2023-01-19T13:41:56;5.70;99.90
14893;DHT22;7538;53.626;9.906;2023-01-19T13:44:27;5.60;99.90
14893;DHT22;7538;53.626;9.906;2023-01-19T13:46:55;5.60;99.90
14893;DHT22;7538;53.626;9.906;2023-01-19T13:49:28;5.60;99.90
14893;DHT22;7538;53.626;9.906;2023-01-19T13:52:08;5.60;99.90
14893;DHT22;7538;53.626;9.906;2023-01-19T13:54:46;5.60;99.90
14893;DHT22;7538;53.626;9.906;2023-01-19T13:57:24;5.50;99.90
14893;DHT22;7538;53.626;9.906;2023-01-19T14:00:03;5.60;99.90
14893;DHT22;7538;53.626;9.906;2023-01-19T14:02:30;5.60;99.90
14893;DHT22;7538;53.626;9.906;2023-01-19T14:05:11;5.60;99.90
14893;DHT22;7538;53.626;9.906;2023-01-19T14:07:38;5.60;99.90
14893;DHT22;7538;53.626;9.906;2023-01-19T14:10:06;5.50;99.90
14893;DHT22;7538;53.626;9.906;2023-01-19T14:12:38;5.50;99.90
14893;DHT22;7538;53.626;9.906;2023-01-19T14:15:08;5.50;99.90
14893;DHT22;7538;53.626;9.906;2023-01-19T14:17:39;5.50;99.90
14893;DHT22;7538;53.626;9.906;2023-01-19T14:20:29;5.60;99.90
14893;DHT22;7538;53.626;9.906;2023-01-19T14:22:57;5.70;99.90
14893;DHT22;7538;53.626;9.906;2023-01-19T14:25:28;5.80;99.90
14893;DHT22;7538;53.626;9.906;2023-01-19T14:28:27;5.80;99.90
14893;DHT22;7538;53.626;9.906;2023-01-19T14:30:55;5.90;99.90
14893;DHT22;7538;53.626;9.906;2023-01-19T14:33:39;5.90;99.90
14893;DHT22;7538;53.626;9.906;2023-01-19T14:36:17;5.90;99.90
14893;DHT22;7538;53.626;9.906;2023-01-19T14:38:47;5.90;99.90
14893;DHT22;7538;53.626;9.906;2023-01-19T14:41:23;5.90;99.90
14893;DHT22;7538;53.626;9.906;2023-01-19T14:43:50;5.90;99.90
14893;DHT22;7538;53.626;9.906;2023-01-19T14:46:19;5.80;99.90
14893;DHT22;7538;53.626;9.906;2023-01-19T14:48:46;5.90;99.90
14893;DHT22;7538;53.626;9.906;2023-01-19T14:51:17;5.90;99.90
14893;DHT22;7538;53.626;9.906;2023-01-19T14:53:47;5.90;99.90
14893;DHT22;7538;53.626;9.906;2023-01-19T14:56:23;5.90;99.90
14893;DHT22;7538;53.626;9.906;2023-01-19T14:58:51;5.90;99.90
14893;DHT22;7538;53.626;9.906;2023-01-19T15:01:18;5.90;99.90
14893;DHT22;7538;53.626;9.906;2023-01-19T15:03:44;5.90;99.90
14893;DHT22;7538;53.626;9.906;2023-01-19T15:06:13;5.80;99.90
14893;DHT22;7538;53.626;9.906;2023-01-19T15:08:43;5.70;99.90
14893;DHT22;7538;53.626;9.906;2023-01-19T15:11:11;5.70;99.90
14893;DHT22;7538;53.626;9.906;2023-01-19T15:13:43;5.60;99.90
14893;DHT22;7538;53.626;9.906;2023-01-19T15:16:10;5.50;99.90
14893;DHT22;7538;53.626;9.906;2023-01-19T15:18:37;5.40;99.90
14893;DHT22;7538;53.626;9.906;2023-01-19T15:21:04;5.30;99.90
14893;DHT22;7538;53.626;9.906;2023-01-19T15:23:31;5.20;99.90
14893;DHT22;7538;53.626;9.906;2023-01-19T15:26:01;5.10;99.90
14893;DHT22;7538;53.626;9.906;2023-01-19T15:28:30;5.10;99.90
14893;DHT22;7538;53.626;9.906;2023-01-19T15:30:57;5.00;99.90
14893;DHT22;7538;53.626;9.906;2023-01-19T15:33:26;4.90;99.90
14893;DHT22;7538;53.626;9.906;2023-01-19T15:35:54;4.90;99.90
14893;DHT22;7538;53.626;9.906;2023-01-19T15:38:21;4.70;99.90
14893;DHT22;7538;53.626;9.906;2023-01-19T15:40:48;4.70;99.90
14893;DHT22;7538;53.626;9.906;2023-01-19T15:43:17;4.60;99.90
14893;DHT22;7538;53.626;9.906;2023-01-19T15:45:47;4.60;99.90
14893;DHT22;7538;53.626;9.906;2023-01-19T15:48:15;4.50;99.90
14893;DHT22;7538;53.626;9.906;2023-01-19T15:50:44;4.50;99.90
14893;DHT22;7538;53.626;9.906;2023-01-19T15:53:13;4.50;99.90
14893;DHT22;7538;53.626;9.906;2023-01-19T15:55:40;4.40;99.90
14893;DHT22;7538;53.626;9.906;2023-01-19T15:58:07;4.30;99.90
14893;DHT22;7538;53.626;9.906;2023-01-19T16:00:55;4.30;99.90
14893;DHT22;7538;53.626;9.906;2023-01-19T16:03:22;4.30;99.90
14893;DHT22;7538;53.626;9.906;2023-01-19T16:05:49;4.20;99.90
14893;DHT22;7538;53.626;9.906;2023-01-19T16:08:16;4.20;99.90
14893;DHT22;7538;53.626;9.906;2023-01-19T16:10:43;4.20;99.90
14893;DHT22;7538;53.626;9.906;2023-01-19T16:13:10;4.20;99.90
14893;DHT22;7538;53.626;9.906;2023-01-19T16:15:38;4.20;99.90
14893;DHT22;7538;53.626;9.906;2023-01-19T16:18:08;4.10;99.90
14893;DHT22;7538;53.626;9.906;2023-01-19T16:20:34;4.10;99.90
14893;DHT22;7538;53.626;9.906;2023-01-19T16:23:01;4.10;99.90
14893;DHT22;7538;53.626;9.906;2023-01-19T16:25:28;4.10;99.90
14893;DHT22;7538;53.626;9.906;2023-01-19T16:27:55;4.10;99.90